createdAt,value
2019-04-23T00:02:58.559Z,96289.00
2019-04-23T00:05:41.444Z,96282.00
2019-04-23T00:08:09.712Z,96284.00
2019-04-23T00:10:43.112Z,96288.00
2019-04-23T00:13:39.340Z,96282.00
2019-04-23T00:16:26.465Z,96277.00
2019-04-23T00:18:42.579Z,96278.00
2019-04-23T00:21:23.534Z,96280.00
2019-04-23T00:24:07.529Z,96261.00
2019-04-23T00:26:35.475Z,96267.00
2019-04-23T00:29:07.893Z,96254.00
2019-04-23T00:31:31.153Z,96257.00
2019-04-23T00:34:10.826Z,96252.00
2019-04-23T00:39:17.336Z,96249.00
2019-04-23T00:41:50.482Z,96236.00
2019-04-23T00:44:29.368Z,96231.00
2019-04-23T00:46:55.900Z,96242.00
2019-04-23T00:49:29.096Z,96237.00
2019-04-23T00:52:00.647Z,96231.00
2019-04-23T00:54:35.631Z,96228.00
2019-04-23T00:57:07.475Z,96219.00
2019-04-23T00:59:44.788Z,96199.00
2019-04-23T01:02:13.271Z,96200.00
2019-04-23T01:04:48.131Z,96203.00
2019-04-23T01:07:18.757Z,96211.00
2019-04-23T01:10:00.904Z,96202.00
2019-04-23T01:12:38.365Z,96206.00
2019-04-23T01:15:02.786Z,96202.00
2019-04-23T01:17:47.234Z,96194.00
2019-04-23T01:20:31.954Z,96201.00
2019-04-23T01:22:40.180Z,96190.00
2019-04-23T01:25:36.438Z,96197.00
2019-04-23T01:28:28.277Z,96190.00
2019-04-23T01:31:01.931Z,96207.00
2019-04-23T01:33:38.033Z,96196.00
2019-04-23T01:36:13.983Z,96192.00
2019-04-23T01:38:41.728Z,96181.00
2019-04-23T01:41:14.563Z,96182.00
2019-04-23T01:46:16.402Z,96172.00
2019-04-23T01:48:51.883Z,96171.00
2019-04-23T01:51:26.241Z,96179.00
2019-04-23T01:53:57.312Z,96165.00
2019-04-23T01:56:30.752Z,96163.00
2019-04-23T01:59:05.425Z,96171.00
2019-04-23T02:01:38.803Z,96165.00
2019-04-23T02:06:59.006Z,96153.00
2019-04-23T02:09:19.476Z,96159.00
2019-04-23T02:11:55.158Z,96155.00
2019-04-23T02:14:26.769Z,96137.00
2019-04-23T02:16:57.896Z,96155.00
2019-04-23T02:19:29.062Z,96134.00
2019-04-23T02:22:28.392Z,96137.00
2019-04-23T02:24:59.390Z,96140.00
2019-04-23T02:27:28.323Z,96141.00
2019-04-23T02:30:15.529Z,96127.00
2019-04-23T02:32:42.134Z,96133.00
2019-04-23T02:35:40.304Z,96132.00
2019-04-23T02:40:31.039Z,96107.00
2019-04-23T02:42:54.615Z,96103.00
2019-04-23T02:45:16.952Z,96104.00
2019-04-23T02:48:05.712Z,96106.00
2019-04-23T02:50:36.728Z,96109.00
2019-04-23T02:53:07.849Z,96103.00
2019-04-23T02:55:43.762Z,96094.00
2019-04-23T02:58:11.037Z,96104.00
2019-04-23T03:00:55.630Z,96108.00
2019-04-23T03:03:22.533Z,96088.00
2019-04-23T03:05:49.281Z,96083.00
2019-04-23T03:08:26.716Z,96088.00
2019-04-23T03:13:44.244Z,96080.00
2019-04-23T03:16:45.465Z,96088.00
2019-04-23T03:35:09.132Z,96071.00
2019-04-23T03:38:00.789Z,96067.00
2019-04-23T03:40:19.140Z,96083.00
2019-04-23T03:43:11.774Z,96080.00
2019-04-23T03:48:15.009Z,96075.00
2019-04-23T03:50:38.883Z,96074.00
2019-04-23T03:53:25.554Z,96077.00
2019-04-23T03:55:56.223Z,96070.00
2019-04-23T03:58:34.786Z,96064.00
2019-04-23T04:01:00.972Z,96054.00
2019-04-23T04:04:06.437Z,96053.00
2019-04-23T04:06:05.455Z,96057.00
2019-04-23T04:09:00.685Z,96061.00
2019-04-23T04:13:51.022Z,96061.00
2019-04-23T04:16:38.299Z,96055.00
2019-04-23T04:18:58.367Z,96043.00
2019-04-23T04:24:01.577Z,96067.00
2019-04-23T04:26:40.981Z,96067.00
2019-04-23T04:29:21.158Z,96070.00
2019-04-23T04:31:42.823Z,96060.00
2019-04-23T04:34:21.450Z,96065.00
2019-04-23T04:39:15.382Z,96061.00
2019-04-23T04:42:09.341Z,96053.00
2019-04-23T04:46:49.960Z,96065.00
2019-04-23T04:49:36.475Z,96051.00
2019-04-23T04:52:11.239Z,96048.00
2019-04-23T04:54:23.119Z,96056.00
2019-04-23T04:57:12.983Z,96060.00
2019-04-23T04:59:50.977Z,96056.00
2019-04-23T05:04:55.910Z,96048.00
2019-04-23T05:07:35.946Z,96060.00
2019-04-23T05:10:01.621Z,96068.00
2019-04-23T05:12:24.162Z,96057.00
2019-04-23T05:17:55.376Z,96052.00
2019-04-23T05:20:21.212Z,96046.00
2019-04-23T05:22:59.519Z,96045.00
2019-04-23T05:25:20.904Z,96051.00
2019-04-23T05:28:05.644Z,96044.00
2019-04-23T05:30:36.360Z,96042.00
2019-04-23T05:33:05.960Z,96051.00
2019-04-23T05:36:04.907Z,96046.00
2019-04-23T05:40:47.770Z,96042.00
2019-04-23T05:43:12.643Z,96048.00
2019-04-23T05:45:46.735Z,96039.00
2019-04-23T05:48:28.326Z,96055.00
2019-04-23T05:50:59.230Z,96050.00
2019-04-23T05:53:26.989Z,96049.00
2019-04-23T05:56:01.913Z,96067.00
2019-04-23T05:58:38.681Z,96056.00
2019-04-23T06:04:03.966Z,96053.00
2019-04-23T06:06:54.134Z,96047.00
2019-04-23T06:09:12.735Z,96040.00
2019-04-23T06:11:51.193Z,96052.00
2019-04-23T06:14:20.424Z,96038.00
2019-04-23T06:19:20.070Z,96046.00
2019-04-23T06:21:57.748Z,96032.00
2019-04-23T06:24:29.066Z,96038.00
2019-04-23T06:27:15.088Z,96043.00
2019-04-23T06:31:58.793Z,96050.00
2019-04-23T06:34:38.250Z,96051.00
2019-04-23T06:37:12.778Z,96037.00
2019-04-23T06:39:43.079Z,96040.00
2019-04-23T06:42:11.550Z,96041.00
2019-04-23T06:47:25.510Z,96039.00
2019-04-23T06:52:30.184Z,96031.00
2019-04-23T06:55:09.410Z,96027.00
2019-04-23T06:57:33.699Z,96030.00
2019-04-23T07:00:13.831Z,96034.00
2019-04-23T07:02:44.497Z,96038.00
2019-04-23T07:05:25.299Z,96035.00
2019-04-23T07:07:50.290Z,96035.00
2019-04-23T07:10:26.748Z,96031.00
2019-04-23T07:12:56.984Z,96034.00
2019-04-23T07:15:42.386Z,96035.00
2019-04-23T07:18:03.882Z,96054.00
2019-04-23T07:20:40.040Z,96041.00
2019-04-23T07:23:14.139Z,96027.00
2019-04-23T07:25:51.799Z,96028.00
2019-04-23T07:28:21.288Z,96009.00
2019-04-23T07:30:55.904Z,96026.00
2019-04-23T07:33:28.140Z,96020.00
2019-04-23T07:36:04.925Z,96028.00
2019-04-23T07:39:07.653Z,96018.00
2019-04-23T07:44:50.217Z,96023.00
2019-04-23T07:47:25.152Z,96018.00
2019-04-23T07:50:15.861Z,96015.00
2019-04-23T07:52:41.491Z,96028.00
2019-04-23T07:55:21.948Z,96027.00
2019-04-23T07:57:40.228Z,96017.00
2019-04-23T08:00:18.188Z,96024.00
2019-04-23T08:02:44.140Z,96013.00
2019-04-23T08:05:22.381Z,96031.00
2019-04-23T08:07:57.136Z,96035.00
2019-04-23T08:10:29.728Z,96022.00
2019-04-23T08:13:12.058Z,96026.00
2019-04-23T08:15:38.042Z,96021.00
2019-04-23T08:18:13.463Z,96002.00
2019-04-23T08:20:47.349Z,96021.00
2019-04-23T08:23:38.539Z,96015.00
2019-04-23T08:26:48.458Z,96031.00
2019-04-23T08:29:28.113Z,96017.00
2019-04-23T08:37:04.669Z,96020.00
2019-04-23T08:39:39.782Z,96013.00
2019-04-23T08:42:27.073Z,96029.00
2019-04-23T08:44:57.373Z,96026.00
2019-04-23T08:47:22.951Z,96027.00
2019-04-23T08:50:15.392Z,96033.00
2019-04-23T08:52:33.484Z,96019.00
2019-04-23T08:55:11.377Z,96014.00
2019-04-23T08:57:39.282Z,96017.00
2019-04-23T09:00:14.071Z,96010.00
2019-04-23T09:02:50.124Z,96008.00
2019-04-23T09:05:24.897Z,96005.00
2019-04-23T09:08:01.480Z,96014.00
2019-04-23T09:10:26.369Z,96004.00
2019-04-23T09:13:32.183Z,96011.00
2019-04-23T09:15:42.894Z,96011.00
2019-04-23T09:18:12.323Z,95996.00
2019-04-23T09:23:13.597Z,96005.00
2019-04-23T09:25:47.713Z,96000.00
2019-04-23T09:28:28.593Z,96002.00
2019-04-23T09:30:55.526Z,95990.00
2019-04-23T09:34:03.504Z,95989.00
2019-04-23T09:36:27.474Z,95996.00
2019-04-23T09:39:12.766Z,95998.00
2019-04-23T09:42:03.937Z,95993.00
2019-04-23T09:50:36.634Z,95986.00
2019-04-23T09:53:17.102Z,95990.00
2019-04-23T10:01:05.047Z,95987.00
2019-04-23T10:03:09.215Z,95983.00
2019-04-23T10:05:40.016Z,95990.00
2019-04-23T10:08:11.334Z,95989.00
2019-04-23T10:10:36.532Z,95967.00
2019-04-23T10:13:08.362Z,95996.00
2019-04-23T10:15:46.028Z,95994.00
2019-04-23T10:18:16.242Z,95979.00
2019-04-23T10:20:48.744Z,95991.00
2019-04-23T10:23:21.257Z,95987.00
2019-04-23T10:25:53.972Z,95978.00
2019-04-23T10:28:29.715Z,95971.00
2019-04-23T10:31:02.813Z,95966.00
2019-04-23T10:33:34.434Z,95972.00
2019-04-23T10:36:11.060Z,95972.00
2019-04-23T10:38:41.674Z,95972.00
2019-04-23T10:41:12.140Z,95979.00
2019-04-23T10:43:48.390Z,95966.00
2019-04-23T10:46:47.130Z,95967.00
2019-04-23T10:57:16.697Z,95945.00
2019-04-23T11:02:43.184Z,95944.00
2019-04-23T11:07:30.949Z,95959.00
2019-04-23T11:10:13.120Z,95955.00
2019-04-23T11:12:44.558Z,95961.00
2019-04-23T11:22:56.760Z,95943.00
2019-04-23T11:25:34.900Z,95935.00
2019-04-23T11:28:13.572Z,95944.00
2019-04-23T11:30:46.411Z,95938.00
2019-04-23T11:36:30.258Z,95929.00
2019-04-23T11:38:50.809Z,95932.00
2019-04-23T11:41:00.565Z,95936.00
2019-04-23T11:58:52.918Z,95939.00
2019-04-23T12:07:34.717Z,95940.00
2019-04-23T12:10:44.150Z,95956.00
2019-04-23T12:13:07.501Z,95946.00
2019-04-23T12:15:44.271Z,95956.00
2019-04-23T12:20:45.055Z,95940.00
2019-04-23T12:25:58.766Z,95959.00
2019-04-23T12:28:31.848Z,95955.00
2019-04-23T12:30:57.087Z,95952.00
2019-04-23T12:33:43.916Z,95945.00
2019-04-23T12:36:33.888Z,95950.00
2019-04-23T12:38:57.081Z,95955.00
2019-04-23T12:41:41.722Z,95971.00
2019-04-23T12:44:16.163Z,95958.00
2019-04-23T12:46:59.754Z,95952.00
2019-04-23T12:49:22.165Z,95947.00
2019-04-23T12:51:46.891Z,95943.00
2019-04-23T12:54:38.351Z,95956.00
2019-04-23T12:56:59.503Z,95947.00
2019-04-23T12:59:23.625Z,95958.00
2019-04-23T13:01:57.618Z,95952.00
2019-04-23T13:04:38.108Z,95955.00
2019-04-23T13:06:57.977Z,95946.00
2019-04-23T13:09:49.173Z,95961.00
2019-04-23T13:12:20.571Z,95951.00
2019-04-23T13:14:51.097Z,95949.00
2019-04-23T13:17:34.188Z,95939.00
2019-04-23T13:20:15.161Z,95952.00
2019-04-23T13:22:30.738Z,95945.00
2019-04-23T13:25:15.397Z,95942.00
2019-04-23T13:27:53.975Z,95947.00
2019-04-23T13:30:24.994Z,95958.00
2019-04-23T13:33:03.118Z,95960.00
2019-04-23T13:43:13.896Z,95958.00
2019-04-23T13:48:23.304Z,95964.00
2019-04-23T13:53:35.277Z,95960.00
2019-04-23T13:55:53.044Z,95961.00
2019-04-23T13:58:36.074Z,95952.00
2019-04-23T14:01:13.982Z,95959.00
2019-04-23T14:03:41.164Z,95963.00
2019-04-23T14:06:18.075Z,95945.00
2019-04-23T14:11:26.403Z,95954.00
2019-04-23T14:13:59.727Z,95955.00
2019-04-23T14:16:28.601Z,95960.00
2019-04-23T14:18:58.737Z,95949.00
2019-04-23T14:21:36.995Z,95954.00
2019-04-23T14:29:04.469Z,95939.00
2019-04-23T14:34:09.070Z,95934.00
2019-04-23T14:36:55.558Z,95935.00
2019-04-23T14:39:24.029Z,95932.00
2019-04-23T14:41:53.787Z,95936.00
2019-04-23T14:44:41.382Z,95933.00
2019-04-23T14:50:19.048Z,95929.00
2019-04-23T14:52:38.191Z,95944.00
2019-04-23T14:55:42.601Z,95933.00
2019-04-23T14:57:57.488Z,95949.00
2019-04-23T15:00:18.592Z,95938.00
2019-04-23T15:05:17.432Z,95932.00
2019-04-23T15:07:50.680Z,95946.00
2019-04-23T15:10:26.346Z,95947.00
2019-04-23T15:12:59.662Z,95933.00
2019-04-23T15:15:35.772Z,95933.00
2019-04-23T15:18:04.080Z,95936.00
2019-04-23T15:20:46.371Z,95934.00
2019-04-23T15:23:33.350Z,95922.00
2019-04-23T15:26:39.434Z,95923.00
2019-04-23T15:28:07.748Z,95918.00
2019-04-23T15:31:02.285Z,95924.00
2019-04-23T15:33:35.330Z,95918.00
2019-04-23T15:36:30.527Z,95916.00
2019-04-23T15:41:15.283Z,95917.00
2019-04-23T15:43:53.230Z,95929.00
2019-04-23T15:46:26.880Z,95922.00
2019-04-23T15:49:01.295Z,95915.00
2019-04-23T15:54:04.111Z,95916.00
2019-04-23T15:56:50.568Z,95935.00
2019-04-23T16:03:47.144Z,95928.00
2019-04-23T16:06:21.453Z,95918.00
2019-04-23T16:09:21.837Z,95921.00
2019-04-23T16:11:48.170Z,95918.00
2019-04-23T16:14:45.742Z,95932.00
2019-04-23T16:17:06.688Z,95916.00
2019-04-23T16:20:06.412Z,95921.00
2019-04-23T16:22:24.854Z,95921.00
2019-04-23T16:25:09.922Z,95917.00
2019-04-23T16:27:31.313Z,95914.00
2019-04-23T16:30:36.482Z,95915.00
2019-04-23T16:33:08.612Z,95913.00
2019-04-23T16:35:43.378Z,95917.00
2019-04-23T16:43:13.265Z,95920.00
2019-04-23T16:45:51.327Z,95922.00
2019-04-23T16:53:26.685Z,95921.00
2019-04-23T16:58:55.221Z,95943.00
2019-04-23T17:03:44.603Z,95942.00
2019-04-23T17:06:15.794Z,95940.00
2019-04-23T17:14:02.692Z,95935.00
2019-04-23T17:19:13.389Z,95922.00
2019-04-23T17:21:57.282Z,95937.00
2019-04-23T17:27:07.112Z,95932.00
2019-04-23T17:31:44.815Z,95947.00
2019-04-23T17:34:30.500Z,95932.00
2019-04-23T17:37:12.170Z,95943.00
2019-04-23T17:39:54.165Z,95941.00
2019-04-23T17:42:32.803Z,95940.00
2019-04-23T17:45:24.189Z,95946.00
2019-04-23T17:47:52.265Z,95947.00
2019-04-23T17:50:20.187Z,95963.00
2019-04-23T17:53:00.963Z,95954.00
2019-04-23T17:55:21.729Z,95973.00
2019-04-23T17:58:01.177Z,95973.00
2019-04-23T18:00:39.003Z,95970.00
2019-04-23T18:05:41.694Z,95970.00
2019-04-23T18:08:12.333Z,95965.00
2019-04-23T18:10:56.460Z,95965.00
2019-04-23T18:13:22.976Z,95979.00
2019-04-23T18:16:04.106Z,95979.00
2019-04-23T18:18:38.151Z,95983.00
2019-04-23T18:24:27.344Z,95994.00
2019-04-23T18:27:05.168Z,96010.00
2019-04-23T18:32:52.585Z,96002.00
2019-04-23T18:35:15.304Z,95993.00
2019-04-23T18:37:34.236Z,95989.00
2019-04-23T18:40:06.863Z,95994.00
2019-04-23T18:45:26.087Z,95995.00
2019-04-23T18:47:56.973Z,96003.00
2019-04-23T18:50:33.140Z,96004.00
2019-04-23T18:52:55.550Z,96003.00
2019-04-23T18:55:52.635Z,96006.00
2019-04-23T18:58:04.229Z,96004.00
2019-04-23T19:00:45.456Z,96016.00
2019-04-23T19:03:37.354Z,96018.00
2019-04-23T19:06:37.671Z,96009.00
2019-04-23T19:09:47.834Z,96007.00
2019-04-23T19:12:24.800Z,96010.00
2019-04-23T19:14:57.954Z,96026.00
2019-04-23T19:22:44.527Z,96025.00
2019-04-23T19:25:07.470Z,96025.00
2019-04-23T19:27:40.500Z,96014.00
2019-04-23T19:30:32.981Z,96013.00
2019-04-23T19:33:03.929Z,96022.00
2019-04-23T19:38:17.886Z,96018.00
2019-04-23T19:40:53.576Z,96022.00
2019-04-23T19:46:00.591Z,96032.00
2019-04-23T19:48:30.352Z,96047.00
2019-04-23T19:51:05.288Z,96034.00
2019-04-23T19:58:49.975Z,96050.00
2019-04-23T20:03:49.682Z,96047.00
2019-04-23T20:06:41.671Z,96053.00
2019-04-23T20:11:34.930Z,96041.00
2019-04-23T20:13:57.496Z,96039.00
2019-04-23T20:16:40.123Z,96055.00
2019-04-23T20:19:18.807Z,96057.00
2019-04-23T20:22:09.218Z,96050.00
2019-04-23T20:24:34.726Z,96042.00
2019-04-23T20:27:06.052Z,96038.00
2019-04-23T20:29:50.853Z,96051.00
2019-04-23T20:35:06.718Z,96046.00
2019-04-23T20:37:42.793Z,96058.00
2019-04-23T20:39:56.661Z,96063.00
2019-04-23T20:42:27.404Z,96067.00
2019-04-23T20:45:06.333Z,96053.00
2019-04-23T20:47:37.395Z,96065.00
2019-04-23T20:49:58.491Z,96057.00
2019-04-23T20:52:45.144Z,96055.00
2019-04-23T20:55:19.320Z,96060.00
2019-04-23T20:58:03.624Z,96062.00
2019-04-23T21:00:54.703Z,96056.00
2019-04-23T21:05:58.510Z,96065.00
2019-04-23T21:10:56.821Z,96060.00
2019-04-23T21:14:01.936Z,96069.00
2019-04-23T21:16:05.058Z,96062.00
2019-04-23T21:21:22.192Z,96072.00
2019-04-23T21:23:50.253Z,96071.00
2019-04-23T21:26:21.535Z,96078.00
2019-04-23T21:29:17.610Z,96070.00
2019-04-23T21:31:53.968Z,96071.00
2019-04-23T21:34:24.658Z,96077.00
2019-04-23T21:36:58.343Z,96075.00
2019-04-23T21:40:20.828Z,96080.00
2019-04-23T21:42:55.960Z,96078.00
2019-04-23T21:45:14.126Z,96078.00
2019-04-23T21:48:02.384Z,96073.00
2019-04-23T21:53:00.190Z,96072.00
2019-04-23T21:55:43.646Z,96068.00
2019-04-23T21:58:07.288Z,96065.00
2019-04-23T22:00:46.190Z,96074.00
2019-04-23T22:03:18.174Z,96071.00
2019-04-23T22:05:51.270Z,96071.00
2019-04-23T22:08:19.966Z,96069.00
2019-04-23T22:11:10.782Z,96082.00
2019-04-23T22:13:41.656Z,96076.00
2019-04-23T22:16:05.690Z,96083.00
2019-04-23T22:18:34.370Z,96077.00
2019-04-23T22:21:05.132Z,96083.00
2019-04-23T22:23:50.521Z,96083.00
2019-04-23T22:26:13.456Z,96081.00
2019-04-23T22:29:00.081Z,96087.00
2019-04-23T22:31:22.641Z,96075.00
2019-04-23T22:34:08.716Z,96076.00
2019-04-23T22:36:23.039Z,96074.00
2019-04-23T22:38:59.996Z,96077.00
2019-04-23T22:41:36.341Z,96078.00
2019-04-23T22:46:51.077Z,96080.00
2019-04-23T22:49:23.223Z,96098.00
2019-04-23T22:54:13.995Z,96087.00
2019-04-23T22:56:54.810Z,96072.00
2019-04-23T23:05:14.229Z,96084.00
2019-04-23T23:07:47.960Z,96084.00
2019-04-23T23:10:12.902Z,96078.00
2019-04-23T23:15:24.429Z,96087.00
2019-04-23T23:18:07.343Z,96086.00
2019-04-23T23:23:13.247Z,96100.00
2019-04-23T23:25:47.849Z,96096.00
2019-04-23T23:36:01.590Z,96114.00
2019-04-23T23:38:33.440Z,96103.00
2019-04-23T23:43:35.419Z,96092.00
2019-04-23T23:51:17.039Z,96090.00
2019-04-23T23:54:06.574Z,96097.00
2019-04-23T23:56:14.049Z,96102.00
2019-04-23T23:59:01.780Z,96091.00
